Flight Track Log - Related Links

Times and Time Zones

All times are in EDT time to prevent confusion due to time zone crossing. See the N288G flight status page for this flight to view local times or setup timezone preferences in your user account.

Time Position Orientation Groundspeed Altitude Reporting Facility
EDT Latitude Longitude Course Direction KTS MPH feet Rate Location/Type
Wed 02:48:54 PM 38.7486 -97.5903 120° Southeast 224 258 4,100  Level Kansas City Center
Wed 02:49:56 PM 38.8147 -97.5717 12° North 259 298 5,700 1,839 Climbing Kansas City Center
Wed 02:50:58 PM 38.8858 -97.6033 341° North 258 297 7,900 1,935 Climbing Kansas City Center
Wed 02:52:00 PM 38.8000 -98.3905 270° West  Level FlightAware Approximate
Wed 02:52:00 PM 38.9208 -97.6819 300° West 270 311 9,700  Level Kansas City Center
Wed 02:53:00 PM 38.8008 -98.5137 274° West  Level FlightAware Approximate
Wed 02:53:02 PM 38.9164 -97.7875 267° West 281 323 11,800  Level Kansas City Center
Wed 02:54:04 PM 38.9131 -97.8697 267° West 283 326 13,300 1,790 Climbing Kansas City Center
Wed 02:55:06 PM 38.9083 -97.9900 267° West 283 326 15,500 1,839 Climbing Kansas City Center
Wed 02:56:08 PM 38.9033 -98.0903 266° West 282 325 17,100 1,306 Climbing Kansas City Center
Wed 02:57:10 PM 38.8997 -98.1961 268° West 295 339 18,200 1,258 Climbing Kansas City Center
Wed 02:58:12 PM 38.8947 -98.3064 267° West 308 354 19,700 1,344 Climbing Kansas City Center
Wed 02:59:15 PM 38.8897 -98.4164 267° West 309 356 21,000 1,152 Climbing Kansas City Center
Wed 03:00:17 PM 38.8842 -98.5564 267° West 326 375 22,100 1,065 Climbing Kansas City Center
Wed 03:01:19 PM 38.8786 -98.6761 267° West 336 387 23,200 1,016 Climbing Kansas City Center
Wed 03:02:21 PM 38.8728 -98.7986 267° West 344 396 24,200 968 Climbing Kansas City Center
Wed 03:03:23 PM 38.8667 -98.9219 266° West 348 400 25,200 968 Climbing Kansas City Center
Wed 03:04:25 PM 38.8606 -99.0469 266° West 351 404 26,200 968 Climbing Kansas City Center
Wed 03:05:27 PM 38.8533 -99.1706 266° West 349 402 27,200 1,065 Climbing Kansas City Center
Wed 03:06:29 PM 38.8464 -99.3214 267° West 353 406 28,400 1,065 Climbing Kansas City Center
Wed 03:07:31 PM 38.8506 -99.4447 273° West 348 400 29,400 968 Climbing Kansas City Center
Wed 03:08:33 PM 38.8511 -99.5742 270° West 349 402 30,400 968 Climbing Kansas City Center
Wed 03:09:35 PM 38.8519 -99.6925 271° West 348 400 31,400 1,016 Climbing Kansas City Center
Wed 03:10:37 PM 38.8528 -99.8292 270° West 346 398 32,500 1,016 Climbing Kansas City Center
Wed 03:11:39 PM 38.8536 -99.9461 271° West 343 395 33,500 1,016 Climbing Kansas City Center
Wed 03:12:41 PM 38.8544 -100.0844 270° West 347 399 34,600 1,016 Climbing Kansas City Center
Wed 03:13:43 PM 38.8547 -100.2006 270° West 344 396 35,600 1,016 Climbing Kansas City Center
Wed 03:14:45 PM 38.8558 -100.3356 271° West 342 394 36,700 1,000 Climbing Kansas City Center
Wed 03:15:37 PM 38.8553 -100.4264 270° West 333 383 37,500 1,000 Climbing Denver Center
Wed 03:16:39 PM 38.8553 -100.5594 270° West 334 384 38,600 919 Climbing Denver Center
Wed 03:17:41 PM 38.8558 -100.6722 270° West 331 381 39,400 581 Climbing Denver Center
Wed 03:18:43 PM 38.8550 -100.7681 269° West 334 384 39,800 484 Climbing Denver Center
Wed 03:19:45 PM 38.8547 -100.9239 270° West 345 397 40,400 576 Climbing Denver Center
Wed 03:20:48 PM 38.8539 -101.0639 270° West 351 404 41,000 581 Climbing Denver Center
Wed 03:21:49 PM 38.8547 -101.1833 271° West 351 404 41,600 878 Climbing Denver Center
Wed 03:22:51 PM 38.8539 -101.3178 270° West 339 390 42,800 677 Climbing Denver Center
Wed 03:23:53 PM 38.8531 -101.4303 269° West 332 382 43,000 97 Climbing Denver Center
Wed 03:24:55 PM 38.8514 -101.5667 269° West 342 394 43,000  Level Denver Center
Wed 03:25:57 PM 38.8506 -101.6881 270° West 355 409 43,000  Level Denver Center
Wed 03:26:59 PM 38.8497 -101.8331 270° West 363 418 43,000  Level Denver Center
Wed 03:28:01 PM 38.8481 -101.9597 269° West 370 426 43,000  Level Denver Center
Wed 03:29:03 PM 38.8475 -102.0875 270° West 374 430 43,000  Level Denver Center
Wed 03:30:05 PM 38.8456 -102.2364 269° West 375 432 43,000  Level Denver Center
Wed 03:31:07 PM 38.8433 -102.3653 269° West 378 435 43,000  Level Denver Center
Wed 03:32:09 PM 38.8408 -102.5156 269° West 376 433 43,000  Level Denver Center
Wed 03:33:11 PM 38.8386 -102.6439 269° West 377 434 43,000  Level Denver Center
Wed 03:34:13 PM 38.8353 -102.8003 268° West 382 440 43,000  Level Denver Center
Wed 03:35:15 PM 38.8339 -102.9086 269° West 382 440 43,000  Level Denver Center
Wed 03:36:17 PM 38.8306 -103.0714 269° West 381 438 43,000  Level Denver Center
Wed 03:37:19 PM 38.8281 -103.2075 269° West 381 438 43,000  Level Denver Center
Wed 03:38:21 PM 38.8244 -103.3447 268° West 384 442 43,000  Level Denver Center
Wed 03:39:23 PM 38.8217 -103.4861 269° West 384 442 43,000  Level Denver Center
Wed 03:40:25 PM 38.8181 -103.6394 268° West 386 444 43,000  Level Denver Center
Wed 03:41:39 PM 38.8161 -103.7692 269° West 384 442 43,000  Level Denver Center
Wed 03:42:41 PM 38.7942 -103.9411 261° West 387 445 43,000  Level Denver Center
Wed 03:43:43 PM 38.7539 -104.0844 250° West 385 443 43,000  Level Denver Center
Wed 03:44:45 PM 38.7219 -104.2039 251° West 387 445 43,000  Level Denver Center
Wed 03:45:47 PM 38.6878 -104.3350 252° West 389 448 43,000  Level Denver Center
Wed 03:46:49 PM 38.6536 -104.4669 252° West 389 448 43,000  Level Denver Center
Wed 03:47:51 PM 38.6133 -104.6247 252° West 388 447 43,000  Level Denver Center
Wed 03:48:53 PM 38.5783 -104.7564 251° West 390 449 43,000  Level Denver Center
Wed 03:49:55 PM 38.5408 -104.8842 249° West 386 444 43,000  Level Denver Center
Wed 03:50:57 PM 38.5028 -105.0136 249° West 388 447 43,000  Level Denver Center
Wed 03:51:59 PM 38.4658 -105.1414 250° West 386 444 43,000  Level Denver Center
Wed 03:53:01 PM 38.4375 -105.2442 251° West 385 443 43,000  Level Denver Center
Wed 03:54:03 PM 38.4031 -105.4331 257° West 391 450 43,000  Level Denver Center
Wed 03:55:05 PM 38.3789 -105.5678 257° West 389 448 43,000  Level Denver Center
Wed 03:56:07 PM 38.3542 -105.7028 257° West 391 450 43,000  Level Denver Center
Wed 03:57:09 PM 38.3286 -105.8442 257° West 387 445 43,000  Level Denver Center
Wed 03:58:11 PM 38.3047 -105.9736 257° West 392 451 43,000 290 Level Denver Center
Wed 03:59:13 PM 38.2928 -106.1225 264° West 383 441 43,600 484 Climbing Denver Center
Wed 04:00:15 PM 38.2994 -106.2461 274° West 375 432 44,000 435 Climbing Denver Center
Wed 04:01:17 PM 38.3033 -106.3786 272° West 374 430 44,500 484 Climbing Denver Center
Wed 04:02:19 PM 38.3069 -106.5264 272° West 366 421 45,000 242 Climbing Denver Center
Wed 04:03:21 PM 38.3108 -106.6517 272° West 370 426 45,000  Level Denver Center
Wed 04:04:23 PM 38.3147 -106.8006 272° West 375 432 45,000  Level Denver Center
Wed 04:05:25 PM 38.3186 -106.9350 272° West 383 441 45,000  Level Denver Center
Wed 04:06:27 PM 38.3297 -107.0714 276° West 385 443 45,000  Level Denver Center
Wed 04:07:29 PM 38.3433 -107.2125 277° West 387 445 45,000  Level Denver Center
Wed 04:08:31 PM 38.3533 -107.3417 276° West 385 443 45,000  Level Denver Center
Wed 04:09:33 PM 38.3519 -107.4986 269° West 392 451 45,000  Level Denver Center
Wed 04:10:35 PM 38.3533 -107.6306 271° West 391 450 45,000  Level Denver Center
Wed 04:11:49 PM 38.3556 -107.7833 271° West 387 445 45,000  Level Denver Center
Wed 04:12:51 PM 38.3586 -107.9375 271° West 389 448 45,000  Level Denver Center
Wed 04:13:53 PM 38.3592 -108.0906 270° West 387 445 45,000  Level Denver Center
Wed 04:14:55 PM 38.3608 -108.2233 271° West 390 449 45,000  Level Denver Center
Wed 04:15:57 PM 38.3617 -108.3778 270° West 390 449 45,000  Level Denver Center
Wed 04:16:59 PM 38.3631 -108.5100 271° West 389 448 45,000  Level Denver Center
Wed 04:18:01 PM 38.3631 -108.6658 270° West 392 451 45,000  Level Denver Center
Wed 04:19:03 PM 38.3642 -108.7972 271° West 388 447 45,000  Level Denver Center
Wed 04:20:17 PM 38.3644 -108.9508 270° West 388 447 45,000  Level Denver Center
Wed 04:21:31 PM 38.3644 -109.1044 270° West 388 447 45,000  Level Denver Center
Wed 04:22:34 PM 38.3656 -109.2836 271° West 393 452 45,000  Level Denver Center
Wed 04:23:36 PM 38.3661 -109.4383 270° West 392 451 45,000  Level Denver Center
Wed 04:24:38 PM 38.3650 -109.5711 269° West 391 450 45,000  Level Denver Center
Wed 04:25:40 PM 38.3633 -109.7039 269° West 391 450 45,000  Level Denver Center
Wed 04:26:42 PM 38.3639 -109.8594 270° West 392 451 45,000  Level Denver Center
Wed 04:27:43 PM 38.3628 -109.9694 269° West 389 448 45,000  Level Denver Center
Wed 04:28:46 PM 38.3614 -110.1444 269° West 390 449 45,000  Level Denver Center
Wed 04:29:48 PM 38.3603 -110.2764 269° West 389 448 45,000  Level Denver Center
Wed 04:30:50 PM 38.3586 -110.4311 269° West 390 449 45,000  Level Denver Center
Wed 04:32:04 PM 38.3572 -110.5619 269° West 387 445 45,000  Level Denver Center
Wed 04:33:06 PM 38.3556 -110.7378 269° West 388 447 45,000  Level Denver Center
Wed 04:34:08 PM 38.3539 -110.8686 269° West 388 447 45,000  Level Denver Center
Wed 04:35:22 PM 38.3517 -111.0158 269° West 386 444 45,000  Level Denver Center
Wed 04:36:40 PM 38.3489 -111.2086 269° West 388 447 45,000  Level Salt Lake Center
Wed 04:37:42 PM 38.3475 -111.3719 269° West 387 445 45,000  Level Salt Lake Center
Wed 04:43:56 PM 38.4387 -112.2350 269° West 395 455 45,000  Level FlightAware ADS-B
Wed 04:46:26 PM 38.4537 -112.5850 273° West 396 456 45,000  Level FlightAware ADS-B
Wed 04:47:16 PM 38.4587 -112.7010 273° West 396 456 45,000  Level FlightAware ADS-B
Wed 04:48:33 PM 38.4663 -112.8780 273° West 394 453 45,000  Level FlightAware ADS-B
Wed 04:49:05 PM 38.4691 -112.9490 273° West 389 448 45,000  Level FlightAware ADS-B
Wed 04:50:02 PM 38.4736 -113.0503 273° West 389 448 45,000  Level Salt Lake Center
Wed 04:51:03 PM 38.4803 -113.2128 273° West 386 444 45,000  Level Salt Lake Center
Wed 04:52:05 PM 38.4856 -113.3464 273° West 381 438 45,000  Level Salt Lake Center
Wed 04:53:07 PM 38.4906 -113.4775 273° West 376 433 45,000  Level Salt Lake Center
Wed 04:54:09 PM 38.4947 -113.6094 272° West 375 432 45,000  Level Salt Lake Center
Wed 04:55:10 PM 38.5000 -113.7397 273° West 372 428 45,000  Level Salt Lake Center
Wed 04:56:12 PM 38.5042 -113.8708 272° West 372 428 45,000  Level Salt Lake Center
Wed 04:57:14 PM 38.5092 -114.0303 272° West 375 432 45,000  Level Salt Lake Center
Wed 04:58:15 PM 38.5131 -114.1636 272° West 377 434 45,000  Level Salt Lake Center
Wed 04:59:17 PM 38.5181 -114.2981 273° West 381 438 45,000  Level Salt Lake Center
Wed 05:00:19 PM 38.5192 -114.4319 271° West 380 437 45,000  Level Salt Lake Center
Wed 05:01:21 PM 38.5097 -114.5647 265° West 377 434 45,000  Level Salt Lake Center
Wed 05:02:23 PM 38.5008 -114.6981 265° West 378 435 45,000  Level Salt Lake Center
Wed 05:03:24 PM 38.4831 -114.8281 260° West 374 430 45,000  Level Salt Lake Center
Wed 05:04:26 PM 38.4553 -114.9814 257° West 371 427 45,000  Level Salt Lake Center
Wed 05:05:28 PM 38.4308 -115.1050 256° West 364 419 45,000  Level Salt Lake Center
Wed 05:06:30 PM 38.4067 -115.2303 256° West 365 420 45,000  Level Salt Lake Center
Wed 05:07:32 PM 38.3811 -115.3489 255° West 362 417 45,000  Level Salt Lake Center
Wed 05:08:33 PM 38.3528 -115.4703 253° West 360 414 45,000  Level Salt Lake Center
Wed 05:09:35 PM 38.3261 -115.5944 255° West 362 417 45,000  Level Salt Lake Center
Wed 05:10:37 PM 38.2975 -115.7442 256° West 363 418 45,000  Level Salt Lake Center
Wed 05:11:39 PM 38.2750 -115.8689 257° West 362 417 45,000  Level Salt Lake Center
Wed 05:12:40 PM 38.2525 -115.9936 257° West 362 417 45,000  Level Salt Lake Center
Wed 05:13:42 PM 38.2503 -116.1242 269° West 367 422 45,000  Level Salt Lake Center
Wed 05:14:44 PM 38.2447 -116.2500 267° West 360 414 45,000  Level Salt Lake Center
Wed 05:15:46 PM 38.2375 -116.3772 266° West 360 414 45,000  Level Salt Lake Center
Wed 05:16:48 PM 38.2308 -116.5050 266° West 363 418 45,000  Level Salt Lake Center
Wed 05:17:50 PM 38.2222 -116.6608 266° West 367 422 45,000  Level Salt Lake Center
Wed 05:18:52 PM 38.2147 -116.7911 266° West 369 425 45,000  Level Salt Lake Center
Wed 05:19:53 PM 38.2078 -116.9194 266° West 366 421 45,000  Level Salt Lake Center
Wed 05:20:55 PM 38.2017 -117.0483 267° West 367 422 45,000  Level Salt Lake Center
Wed 05:21:57 PM 38.1933 -117.1844 266° West 370 426 45,000  Level Salt Lake Center
Wed 05:22:59 PM 38.1825 -117.3322 265° West 385 443 45,000  Level Salt Lake Center
Wed 05:24:01 PM 38.1639 -117.4575 259° West 369 425 45,000  Level Salt Lake Center
Wed 05:25:03 PM 38.1464 -117.5844 260° West 367 422 45,000  Level Salt Lake Center
Wed 05:26:05 PM 38.1289 -117.7111 260° West 365 420 45,000  Level Salt Lake Center
Wed 05:27:07 PM 38.1117 -117.8381 260° West 366 421 45,000  Level Salt Lake Center
Wed 05:28:09 PM 38.0908 -117.9894 260° West 365 420 45,000  Level Salt Lake Center
Wed 05:29:11 PM 38.0719 -118.1147 259° West 363 418 45,000  Level Salt Lake Center
Wed 05:30:13 PM 38.0539 -118.2381 260° West 357 411 45,000  Level Salt Lake Center
Wed 05:31:15 PM 38.0364 -118.3622 260° West 359 413 45,000  Level Salt Lake Center
Wed 05:32:17 PM 38.0183 -118.4867 260° West 359 413 45,000  Level Salt Lake Center
Wed 05:33:30 PM 37.9964 -118.6336 259° West 355 409 45,000  Level Oakland Center
Wed 05:34:31 PM 37.9772 -118.7567 259° West 355 409 45,000  Level Oakland Center
Wed 05:35:32 PM 37.9553 -118.9031 259° West 353 406 45,000  Level Oakland Center
Wed 05:36:34 PM 37.9378 -119.0272 260° West 356 410 45,000  Level Oakland Center
Wed 05:37:35 PM 37.9186 -119.1536 259° West 360 414 45,000  Level Oakland Center
Wed 05:38:37 PM 37.8997 -119.2775 259° West 359 413 45,000  Level Oakland Center
Wed 05:39:38 PM 37.8806 -119.3989 259° West 354 407 45,000 -492 Level Oakland Center
Wed 05:40:39 PM 37.8611 -119.5194 258° West 351 404 44,000 -976 Descending Oakland Center
Wed 05:41:41 PM 37.8433 -119.6375 259° West 342 394 43,000 -976 Descending Oakland Center
Wed 05:42:42 PM 37.8242 -119.7536 258° West 339 390 42,000 -927 Descending Oakland Center
Wed 05:43:44 PM 37.8061 -119.8714 259° West 340 391 41,100 -976 Descending Oakland Center
Wed 05:44:45 PM 37.7858 -119.9914 258° West 348 400 40,000 -1,033 Descending Oakland Center
Wed 05:45:46 PM 37.7675 -120.1147 259° West 355 409 39,000 -1,366 Descending Oakland Center
Wed 05:46:48 PM 37.7425 -120.2681 258° West 368 423 37,200 -1,756 Descending Oakland Center
Wed 05:47:49 PM 37.7214 -120.3928 258° West 364 419 35,400 -1,980 Descending Oakland Center
Wed 05:53:31 PM 37.6426 -121.1400 258° West 376 433 23,900 -2,021 Descending FlightAware ADS-B
Wed 05:54:03 PM 37.6482 -121.2090 276° West 373 429 22,800 -2,000 Descending FlightAware ADS-B
Wed 05:54:52 PM 37.6565 -121.3120 276° West 351 404 21,200 -1,950 Descending FlightAware ADS-B
Wed 05:55:23 PM 37.6614 -121.3740 276° West 348 400 20,200 -1,161 Descending FlightAware ADS-B
Wed 05:55:54 PM 37.6663 -121.4350 276° West 333 383 20,000 -182 Descending FlightAware ADS-B
Wed 05:56:29 PM 37.6717 -121.5040 276° West 335 386 20,000  Level FlightAware ADS-B
Wed 05:57:01 PM 37.6765 -121.5650 276° West 337 388 20,000 -571 Level FlightAware ADS-B
Wed 05:57:32 PM 37.6811 -121.6260 275° West 336 387 19,400 -1,594 Descending FlightAware ADS-B
Wed 05:58:05 PM 37.6859 -121.6900 275° West 340 391 18,300 -2,000 Descending FlightAware ADS-B
Wed 05:58:35 PM 37.6905 -121.7510 275° West 339 390 17,300 -2,032 Descending FlightAware ADS-B
Wed 05:59:07 PM 37.6952 -121.8130 275° West 337 388 16,200 -1,333 Descending FlightAware ADS-B
Wed 05:59:38 PM 37.6995 -121.8710 275° West 329 379 15,900 -290 Descending FlightAware ADS-B
Wed 06:00:09 PM 37.7040 -121.9310 275° West 319 367 15,900  Level FlightAware ADS-B
Wed 06:00:40 PM 37.7082 -121.9870 275° West 314 361 15,900  Level FlightAware ADS-B
Wed 06:01:10 PM 37.7124 -122.0420 276° West 313 360 15,900  Level FlightAware ADS-B
Wed 06:01:42 PM 37.7167 -122.1000 275° West 312 359 15,900  Level FlightAware ADS-B
Wed 06:02:17 PM 37.7214 -122.1640 275° West 310 357 15,900  Level FlightAware ADS-B
Wed 06:02:43 PM 37.7266 -122.2090 278° West 315 362 15,900  Level FlightAware ADS-B
Wed 06:02:47 PM 37.7294 -122.2170 294° West 318 366 15,900  Level FlightAware ADS-B
Wed 06:03:06 PM 37.7480 -122.2430 312° West 328 377 15,900  Level FlightAware ADS-B
Wed 06:03:37 PM 37.7838 -122.2810 320° Northwest 328 377 15,900  Level FlightAware ADS-B
Wed 06:04:08 PM 37.8195 -122.3200 319° Northwest 329 379 15,900 -563 Level FlightAware ADS-B
Wed 06:04:41 PM 37.8582 -122.3610 320° Northwest 330 380 15,300 -2,000 Descending FlightAware ADS-B
Wed 06:05:20 PM 37.9002 -122.4060 320° Northwest 298 343 13,500 -2,620 Descending FlightAware ADS-B
Wed 06:05:52 PM 37.9330 -122.4410 320° Northwest 265 305 12,200 -2,438 Descending FlightAware ADS-B
Wed 06:14:00 PM 38.1333 -122.5500 351° North  Level FlightAware Approximate
Wed 06:15:00 PM 38.1436 -122.5561 351° North  Level Estimated
Wed 06:16:00 PM 38.1436 -122.5561 351° North  Level Estimated
Wed 06:17:00 PM 38.1436 -122.5561 351° North  Level Estimated
Wed 06:18:00 PM 38.1436 -122.5561 351° North  Level Estimated
Wed 06:19:00 PM 38.1436 -122.5561 351° North  Level Estimated
Wed 06:20:00 PM 38.1436 -122.5561 351° North  Level Estimated
Wed 06:21:00 PM 38.1436 -122.5561 351° North  Level Estimated
Wed 06:22:00 PM 38.1436 -122.5561 351° North  Level Estimated
Wed 06:23:00 PM 38.1436 -122.5561 351° North  Level Estimated
Wed 06:24:00 PM 38.1436 -122.5561 351° North  Level Estimated
Wed 06:25:00 PM 38.1436 -122.5561 351° North  Level Estimated
Wed 06:26:00 PM 38.1436 -122.5561 351° North  Level Estimated
Wed 06:27:00 PM 38.1436 -122.5561 351° North  Level Estimated

Login

Don't have an account? Register now (free) for customized features, flight alerts, and more!